This is the latest recevied weather packets stored in our database for station/object WD4HMR. If no packets are shown the sender has not sent any weather packets the latest 10 day(s).
| Time | Temp. | Humidity | Pressure | Rain* | Wind** | Luminosity | Snow |
|---|---|---|---|---|---|---|---|
| 1778231820 | 12.22° C | 81% | 1015.7 hPa | 0 mm | - | - | - |
| 1778231413 | 11.67° C | 86% | 1015.5 hPa | 0 mm | - | - | - |
| 1778231400 | 11.67° C | 86% | 1015.5 hPa | 0 mm | - | - | - |
| 1778230980 | 12.22° C | 86% | 1015.5 hPa | 0 mm | - | - | - |
| 1778230931 | 12.22° C | 86% | 1015.5 hPa | 0 mm | - | - | - |
| 1778230559 | 11.67° C | 86% | 1015.5 hPa | 0 mm | - | - | - |
| 1778230452 | 11.67° C | 86% | 1015.4 hPa | 0 mm | - | - | - |
| 1778230139 | 11.67° C | 88% | 1015.4 hPa | 0 mm | - | - | - |
| 1778228532 | 11.11° C | 92% | 1014.9 hPa | 0 mm | - | - | - |
| 1778228451 | 11.11° C | 92% | 1014.9 hPa | 0 mm | - | - | - |
| 1778228032 | 11.11° C | 92% | 1014.9 hPa | 0 mm | - | - | - |
| 1778227611 | 11.11° C | 92% | 1014.9 hPa | 0 mm | - | - | - |
| 1778227572 | 11.11° C | 92% | 1014.9 hPa | 0 mm | - | - | - |
| 1778227191 | 11.11° C | 93% | 1014.8 hPa | 0 mm | - | - | - |
| 1778227092 | 11.11° C | 93% | 1014.8 hPa | 0 mm | - | - | - |
| 1778226771 | 11.67° C | 92% | 1015 hPa | 0 mm | - | - | - |
| 1778226611 | 11.67° C | 92% | 1015 hPa | 0 mm | - | - | - |
| 1778226350 | 11.67° C | 92% | 1015 hPa | 0 mm | - | - | - |
| 1778226132 | 11.67° C | 92% | 1015.1 hPa | 0 mm | - | - | - |
| 1778225930 | 11.67° C | 92% | 1015 hPa | 0 mm | - | - | - |
| 1778225653 | 11.67° C | 92% | 1014.9 hPa | 0 mm | - | - | - |
| 1778225510 | 11.67° C | 92% | 1014.9 hPa | 0 mm | - | - | - |
| 1778225172 | 12.22° C | 93% | 1014.8 hPa | 0 mm | - | - | - |
| 1778225036 | 12.22° C | 92% | 1014.9 hPa | 0 mm | - | - | - |
| 1778224691 | 12.22° C | 93% | 1015 hPa | 0 mm | - | - | - |
* Rain latest hour (hover to see other rain measurements)
** Current wind speed in m/s (hover to see current wind gust speed)